Millport, Alabama
Current Conditions -  °F | °C
As of 4:58 AM on Friday 24 Oct 2014 (Local Time) from KCBM Reporting Station
Broken Clouds Broken Clouds  
Wind Chill: 51°   Ceiling: 22000
Heat Index: 51°   Visibility: 10mi
Dew Point: 49°   Wind: 5mph
Humidity: 91%   Direction: 350°N
Pressure: 30.1"   Gusts: NA
Location:  33.56°N, 88.08°W
Report Text: KCBM 240958Z AUTO 35004KT 10SM SCT150 BKN220 11/09 A3010 RMK AO2 SLP195 T01070093 $
Loading
Personal Weather Stations






























Interactive Weather Map
Tropical Storm Tracking
New forecast layout! Learn more

10-Day Weather Forecast

Advertisements
Track Severe Weather on mobile